sensor_id;sensor_type;location;lat;lon;timestamp;P1;durP1;ratioP1;P2;durP2;ratioP2
46931;SDS011;32670;51.464;11.964;2024-01-25T00:01:06;2.23;;;1.70;;
46931;SDS011;32670;51.464;11.964;2024-01-25T00:03:31;1.80;;;1.70;;
46931;SDS011;32670;51.464;11.964;2024-01-25T00:05:57;1.83;;;1.73;;
46931;SDS011;32670;51.464;11.964;2024-01-25T00:08:22;4.43;;;1.90;;
46931;SDS011;32670;51.464;11.964;2024-01-25T00:10:48;3.73;;;1.90;;
46931;SDS011;32670;51.464;11.964;2024-01-25T00:13:13;2.13;;;1.80;;
46931;SDS011;32670;51.464;11.964;2024-01-25T00:15:39;2.83;;;1.57;;
46931;SDS011;32670;51.464;11.964;2024-01-25T00:18:04;2.27;;;1.83;;
46931;SDS011;32670;51.464;11.964;2024-01-25T00:20:30;1.80;;;1.70;;
46931;SDS011;32670;51.464;11.964;2024-01-25T00:22:55;2.30;;;1.80;;
46931;SDS011;32670;51.464;11.964;2024-01-25T00:25:21;1.87;;;1.73;;
46931;SDS011;32670;51.464;11.964;2024-01-25T00:27:46;1.97;;;1.57;;
46931;SDS011;32670;51.464;11.964;2024-01-25T00:30:12;1.80;;;1.70;;
46931;SDS011;32670;51.464;11.964;2024-01-25T00:32:38;1.83;;;1.50;;
46931;SDS011;32670;51.464;11.964;2024-01-25T00:35:03;2.13;;;1.53;;
46931;SDS011;32670;51.464;11.964;2024-01-25T00:37:29;2.13;;;1.60;;
46931;SDS011;32670;51.464;11.964;2024-01-25T00:39:55;1.70;;;1.60;;
46931;SDS011;32670;51.464;11.964;2024-01-25T00:42:21;2.10;;;1.90;;
46931;SDS011;32670;51.464;11.964;2024-01-25T00:44:47;2.03;;;1.73;;
46931;SDS011;32670;51.464;11.964;2024-01-25T00:47:13;2.53;;;1.43;;
46931;SDS011;32670;51.464;11.964;2024-01-25T00:49:39;1.80;;;1.70;;
46931;SDS011;32670;51.464;11.964;2024-01-25T00:52:04;2.40;;;1.70;;
46931;SDS011;32670;51.464;11.964;2024-01-25T00:54:30;1.93;;;1.73;;
46931;SDS011;32670;51.464;11.964;2024-01-25T00:56:56;2.67;;;1.90;;
46931;SDS011;32670;51.464;11.964;2024-01-25T00:59:22;1.70;;;1.60;;
46931;SDS011;32670;51.464;11.964;2024-01-25T01:01:48;2.17;;;1.80;;
46931;SDS011;32670;51.464;11.964;2024-01-25T01:04:17;1.90;;;1.50;;
46931;SDS011;32670;51.464;11.964;2024-01-25T01:06:43;1.90;;;1.70;;
46931;SDS011;32670;51.464;11.964;2024-01-25T01:09:09;2.27;;;2.03;;
46931;SDS011;32670;51.464;11.964;2024-01-25T01:11:35;1.70;;;1.60;;
46931;SDS011;32670;51.464;11.964;2024-01-25T01:14:01;3.23;;;1.43;;
46931;SDS011;32670;51.464;11.964;2024-01-25T01:16:27;2.00;;;1.60;;
46931;SDS011;32670;51.464;11.964;2024-01-25T01:18:55;2.33;;;1.77;;
46931;SDS011;32670;51.464;11.964;2024-01-25T01:21:21;2.13;;;1.50;;
46931;SDS011;32670;51.464;11.964;2024-01-25T01:23:46;2.60;;;1.77;;
46931;SDS011;32670;51.464;11.964;2024-01-25T01:26:11;4.67;;;1.83;;
46931;SDS011;32670;51.464;11.964;2024-01-25T01:28:37;2.50;;;2.17;;
46931;SDS011;32670;51.464;11.964;2024-01-25T01:31:02;3.10;;;1.80;;
46931;SDS011;32670;51.464;11.964;2024-01-25T01:33:28;2.27;;;2.00;;
46931;SDS011;32670;51.464;11.964;2024-01-25T01:35:53;9.57;;;2.17;;
46931;SDS011;32670;51.464;11.964;2024-01-25T01:38:19;2.70;;;2.10;;
46931;SDS011;32670;51.464;11.964;2024-01-25T01:40:44;2.83;;;2.20;;
46931;SDS011;32670;51.464;11.964;2024-01-25T01:43:17;2.43;;;2.00;;
46931;SDS011;32670;51.464;11.964;2024-01-25T01:45:48;3.73;;;2.00;;
46931;SDS011;32670;51.464;11.964;2024-01-25T01:48:14;3.23;;;2.10;;
46931;SDS011;32670;51.464;11.964;2024-01-25T01:50:40;2.03;;;1.70;;
46931;SDS011;32670;51.464;11.964;2024-01-25T01:53:07;2.50;;;2.20;;
46931;SDS011;32670;51.464;11.964;2024-01-25T01:55:32;2.50;;;2.13;;
46931;SDS011;32670;51.464;11.964;2024-01-25T01:57:58;3.80;;;1.87;;
46931;SDS011;32670;51.464;11.964;2024-01-25T02:00:24;2.30;;;2.07;;
46931;SDS011;32670;51.464;11.964;2024-01-25T02:02:51;2.43;;;2.00;;
46931;SDS011;32670;51.464;11.964;2024-01-25T02:05:17;5.50;;;1.90;;
46931;SDS011;32670;51.464;11.964;2024-01-25T02:07:42;2.67;;;2.10;;
46931;SDS011;32670;51.464;11.964;2024-01-25T02:10:08;2.27;;;2.07;;
46931;SDS011;32670;51.464;11.964;2024-01-25T02:12:34;4.03;;;1.80;;
46931;SDS011;32670;51.464;11.964;2024-01-25T02:15:00;2.00;;;1.73;;
46931;SDS011;32670;51.464;11.964;2024-01-25T02:17:26;3.00;;;1.80;;
46931;SDS011;32670;51.464;11.964;2024-01-25T02:19:51;3.07;;;1.80;;
46931;SDS011;32670;51.464;11.964;2024-01-25T02:22:18;1.80;;;1.70;;
46931;SDS011;32670;51.464;11.964;2024-01-25T02:24:44;2.13;;;1.77;;
46931;SDS011;32670;51.464;11.964;2024-01-25T02:27:10;2.37;;;2.07;;
46931;SDS011;32670;51.464;11.964;2024-01-25T02:29:35;1.93;;;1.70;;
46931;SDS011;32670;51.464;11.964;2024-01-25T02:32:01;2.40;;;2.03;;
46931;SDS011;32670;51.464;11.964;2024-01-25T02:34:27;2.33;;;2.00;;
46931;SDS011;32670;51.464;11.964;2024-01-25T02:36:53;2.23;;;1.90;;
46931;SDS011;32670;51.464;11.964;2024-01-25T02:39:18;1.90;;;1.80;;
46931;SDS011;32670;51.464;11.964;2024-01-25T02:41:44;2.17;;;1.97;;
46931;SDS011;32670;51.464;11.964;2024-01-25T02:44:09;1.80;;;1.70;;
46931;SDS011;32670;51.464;11.964;2024-01-25T02:46:36;2.30;;;1.73;;
46931;SDS011;32670;51.464;11.964;2024-01-25T02:49:01;2.87;;;1.80;;
46931;SDS011;32670;51.464;11.964;2024-01-25T02:51:27;2.00;;;1.70;;
46931;SDS011;32670;51.464;11.964;2024-01-25T02:53:52;1.80;;;1.70;;
46931;SDS011;32670;51.464;11.964;2024-01-25T02:56:18;2.00;;;1.77;;
46931;SDS011;32670;51.464;11.964;2024-01-25T02:58:43;1.90;;;1.57;;
46931;SDS011;32670;51.464;11.964;2024-01-25T03:01:09;1.70;;;1.60;;
46931;SDS011;32670;51.464;11.964;2024-01-25T03:03:34;2.83;;;1.90;;
46931;SDS011;32670;51.464;11.964;2024-01-25T03:06:00;2.40;;;1.97;;
46931;SDS011;32670;51.464;11.964;2024-01-25T03:08:25;2.93;;;1.90;;
46931;SDS011;32670;51.464;11.964;2024-01-25T03:10:51;2.00;;;1.80;;
46931;SDS011;32670;51.464;11.964;2024-01-25T03:13:16;2.27;;;1.83;;
46931;SDS011;32670;51.464;11.964;2024-01-25T03:15:42;1.97;;;1.70;;
46931;SDS011;32670;51.464;11.964;2024-01-25T03:18:09;3.37;;;1.80;;
46931;SDS011;32670;51.464;11.964;2024-01-25T03:20:34;2.20;;;1.77;;
46931;SDS011;32670;51.464;11.964;2024-01-25T03:23:00;2.37;;;2.13;;
46931;SDS011;32670;51.464;11.964;2024-01-25T03:25:25;1.60;;;1.50;;
46931;SDS011;32670;51.464;11.964;2024-01-25T03:27:51;2.00;;;1.80;;
46931;SDS011;32670;51.464;11.964;2024-01-25T03:30:16;1.93;;;1.57;;
46931;SDS011;32670;51.464;11.964;2024-01-25T03:32:42;1.97;;;1.70;;
46931;SDS011;32670;51.464;11.964;2024-01-25T03:35:07;1.70;;;1.60;;
46931;SDS011;32670;51.464;11.964;2024-01-25T03:37:33;2.10;;;1.90;;
46931;SDS011;32670;51.464;11.964;2024-01-25T03:39:58;3.20;;;1.70;;
46931;SDS011;32670;51.464;11.964;2024-01-25T03:42:24;1.60;;;1.50;;
46931;SDS011;32670;51.464;11.964;2024-01-25T03:44:49;2.13;;;1.70;;
46931;SDS011;32670;51.464;11.964;2024-01-25T03:47:15;3.67;;;2.00;;
46931;SDS011;32670;51.464;11.964;2024-01-25T03:49:40;2.43;;;1.73;;
46931;SDS011;32670;51.464;11.964;2024-01-25T03:52:06;3.27;;;1.73;;
46931;SDS011;32670;51.464;11.964;2024-01-25T03:54:32;3.10;;;2.00;;
46931;SDS011;32670;51.464;11.964;2024-01-25T03:56:57;3.43;;;2.03;;
46931;SDS011;32670;51.464;11.964;2024-01-25T03:59:22;2.27;;;1.73;;
46931;SDS011;32670;51.464;11.964;2024-01-25T04:01:48;4.93;;;1.93;;
46931;SDS011;32670;51.464;11.964;2024-01-25T04:04:14;3.33;;;2.00;;
46931;SDS011;32670;51.464;11.964;2024-01-25T04:06:42;3.47;;;1.97;;
46931;SDS011;32670;51.464;11.964;2024-01-25T04:09:09;3.07;;;1.70;;
46931;SDS011;32670;51.464;11.964;2024-01-25T04:11:35;2.00;;;1.83;;
46931;SDS011;32670;51.464;11.964;2024-01-25T04:14:01;3.07;;;1.70;;
46931;SDS011;32670;51.464;11.964;2024-01-25T04:16:26;2.43;;;1.70;;
46931;SDS011;32670;51.464;11.964;2024-01-25T04:18:52;2.53;;;1.73;;
46931;SDS011;32670;51.464;11.964;2024-01-25T04:21:18;6.87;;;1.93;;
46931;SDS011;32670;51.464;11.964;2024-01-25T04:23:43;2.57;;;1.80;;
46931;SDS011;32670;51.464;11.964;2024-01-25T04:26:08;1.80;;;1.70;;
46931;SDS011;32670;51.464;11.964;2024-01-25T04:28:34;2.73;;;1.60;;
46931;SDS011;32670;51.464;11.964;2024-01-25T04:30:59;5.47;;;1.90;;
46931;SDS011;32670;51.464;11.964;2024-01-25T04:33:26;2.60;;;1.67;;
46931;SDS011;32670;51.464;11.964;2024-01-25T04:35:52;2.13;;;1.80;;
46931;SDS011;32670;51.464;11.964;2024-01-25T04:38:17;2.80;;;1.60;;
46931;SDS011;32670;51.464;11.964;2024-01-25T04:40:42;3.67;;;1.90;;
46931;SDS011;32670;51.464;11.964;2024-01-25T04:43:08;1.93;;;1.70;;
46931;SDS011;32670;51.464;11.964;2024-01-25T04:45:33;3.97;;;1.70;;
46931;SDS011;32670;51.464;11.964;2024-01-25T04:47:59;2.20;;;1.70;;
46931;SDS011;32670;51.464;11.964;2024-01-25T04:50:24;2.20;;;1.60;;
46931;SDS011;32670;51.464;11.964;2024-01-25T04:52:50;3.47;;;1.80;;
46931;SDS011;32670;51.464;11.964;2024-01-25T04:55:15;2.53;;;1.80;;
46931;SDS011;32670;51.464;11.964;2024-01-25T04:57:41;3.20;;;1.80;;
46931;SDS011;32670;51.464;11.964;2024-01-25T05:00:06;2.93;;;1.60;;
46931;SDS011;32670;51.464;11.964;2024-01-25T05:02:33;2.80;;;1.50;;
46931;SDS011;32670;51.464;11.964;2024-01-25T05:04:58;2.27;;;1.70;;
46931;SDS011;32670;51.464;11.964;2024-01-25T05:07:24;3.00;;;1.60;;
46931;SDS011;32670;51.464;11.964;2024-01-25T05:09:49;2.50;;;1.70;;
46931;SDS011;32670;51.464;11.964;2024-01-25T05:12:15;2.67;;;1.70;;
46931;SDS011;32670;51.464;11.964;2024-01-25T05:14:40;3.77;;;1.70;;
46931;SDS011;32670;51.464;11.964;2024-01-25T05:17:06;4.83;;;1.40;;
46931;SDS011;32670;51.464;11.964;2024-01-25T05:19:31;3.77;;;1.80;;
46931;SDS011;32670;51.464;11.964;2024-01-25T05:21:56;2.03;;;1.80;;
46931;SDS011;32670;51.464;11.964;2024-01-25T05:24:22;1.90;;;1.40;;
46931;SDS011;32670;51.464;11.964;2024-01-25T05:26:47;2.03;;;1.60;;
46931;SDS011;32670;51.464;11.964;2024-01-25T05:29:13;1.40;;;1.30;;
46931;SDS011;32670;51.464;11.964;2024-01-25T05:31:38;3.20;;;1.33;;
46931;SDS011;32670;51.464;11.964;2024-01-25T05:34:04;2.33;;;1.53;;
46931;SDS011;32670;51.464;11.964;2024-01-25T05:36:29;2.03;;;1.30;;
46931;SDS011;32670;51.464;11.964;2024-01-25T05:38:55;1.77;;;1.50;;
46931;SDS011;32670;51.464;11.964;2024-01-25T05:41:20;2.23;;;1.50;;
46931;SDS011;32670;51.464;11.964;2024-01-25T05:43:45;2.23;;;1.50;;
46931;SDS011;32670;51.464;11.964;2024-01-25T05:46:11;1.70;;;1.50;;
46931;SDS011;32670;51.464;11.964;2024-01-25T05:48:36;1.87;;;1.40;;
46931;SDS011;32670;51.464;11.964;2024-01-25T05:51:02;2.80;;;1.77;;
46931;SDS011;32670;51.464;11.964;2024-01-25T05:53:27;4.20;;;1.80;;
46931;SDS011;32670;51.464;11.964;2024-01-25T05:55:53;2.10;;;1.87;;
46931;SDS011;32670;51.464;11.964;2024-01-25T05:58:18;4.07;;;1.60;;
46931;SDS011;32670;51.464;11.964;2024-01-25T06:00:44;3.83;;;1.83;;
46931;SDS011;32670;51.464;11.964;2024-01-25T06:03:09;2.73;;;1.50;;
46931;SDS011;32670;51.464;11.964;2024-01-25T06:05:35;2.37;;;1.50;;
46931;SDS011;32670;51.464;11.964;2024-01-25T06:08:00;2.73;;;1.20;;
46931;SDS011;32670;51.464;11.964;2024-01-25T06:10:26;2.53;;;1.40;;
46931;SDS011;32670;51.464;11.964;2024-01-25T06:12:51;4.67;;;1.67;;
46931;SDS011;32670;51.464;11.964;2024-01-25T06:15:17;3.53;;;1.70;;
46931;SDS011;32670;51.464;11.964;2024-01-25T06:17:42;2.77;;;1.70;;
46931;SDS011;32670;51.464;11.964;2024-01-25T06:20:08;2.10;;;1.40;;
46931;SDS011;32670;51.464;11.964;2024-01-25T06:22:35;1.70;;;1.30;;
46931;SDS011;32670;51.464;11.964;2024-01-25T06:25:01;3.57;;;1.40;;
46931;SDS011;32670;51.464;11.964;2024-01-25T06:27:28;2.37;;;1.40;;
46931;SDS011;32670;51.464;11.964;2024-01-25T06:29:54;2.43;;;1.33;;
46931;SDS011;32670;51.464;11.964;2024-01-25T06:32:19;1.67;;;1.40;;
46931;SDS011;32670;51.464;11.964;2024-01-25T06:34:45;1.70;;;1.20;;
46931;SDS011;32670;51.464;11.964;2024-01-25T06:37:10;2.10;;;1.60;;
46931;SDS011;32670;51.464;11.964;2024-01-25T06:39:36;5.57;;;1.60;;
46931;SDS011;32670;51.464;11.964;2024-01-25T06:42:03;3.57;;;1.67;;
46931;SDS011;32670;51.464;11.964;2024-01-25T06:44:28;4.10;;;1.80;;
46931;SDS011;32670;51.464;11.964;2024-01-25T06:46:54;4.80;;;1.60;;
46931;SDS011;32670;51.464;11.964;2024-01-25T06:49:19;4.57;;;1.80;;
46931;SDS011;32670;51.464;11.964;2024-01-25T06:51:45;5.70;;;2.00;;
46931;SDS011;32670;51.464;11.964;2024-01-25T06:54:10;5.73;;;2.00;;
46931;SDS011;32670;51.464;11.964;2024-01-25T06:56:36;4.53;;;2.30;;
46931;SDS011;32670;51.464;11.964;2024-01-25T06:59:01;4.67;;;2.10;;
46931;SDS011;32670;51.464;11.964;2024-01-25T07:01:27;6.10;;;2.13;;
46931;SDS011;32670;51.464;11.964;2024-01-25T07:03:53;7.30;;;2.73;;
46931;SDS011;32670;51.464;11.964;2024-01-25T07:06:18;7.63;;;2.30;;
46931;SDS011;32670;51.464;11.964;2024-01-25T07:08:44;7.67;;;2.63;;
46931;SDS011;32670;51.464;11.964;2024-01-25T07:11:10;6.30;;;2.40;;
46931;SDS011;32670;51.464;11.964;2024-01-25T07:13:35;5.97;;;2.20;;
46931;SDS011;32670;51.464;11.964;2024-01-25T07:16:01;5.20;;;2.57;;
46931;SDS011;32670;51.464;11.964;2024-01-25T07:18:26;9.17;;;2.30;;
46931;SDS011;32670;51.464;11.964;2024-01-25T07:20:53;6.20;;;2.37;;
46931;SDS011;32670;51.464;11.964;2024-01-25T07:23:21;12.30;;;3.00;;
46931;SDS011;32670;51.464;11.964;2024-01-25T07:25:47;5.03;;;2.23;;
46931;SDS011;32670;51.464;11.964;2024-01-25T07:28:12;8.33;;;2.70;;
46931;SDS011;32670;51.464;11.964;2024-01-25T07:30:38;6.77;;;2.90;;
46931;SDS011;32670;51.464;11.964;2024-01-25T07:33:03;5.53;;;2.20;;
46931;SDS011;32670;51.464;11.964;2024-01-25T07:35:29;6.57;;;2.37;;
46931;SDS011;32670;51.464;11.964;2024-01-25T07:37:54;6.70;;;2.77;;
46931;SDS011;32670;51.464;11.964;2024-01-25T07:40:20;7.80;;;2.40;;
46931;SDS011;32670;51.464;11.964;2024-01-25T07:42:46;6.90;;;2.40;;
46931;SDS011;32670;51.464;11.964;2024-01-25T07:45:12;5.80;;;2.20;;
46931;SDS011;32670;51.464;11.964;2024-01-25T07:47:38;7.67;;;2.40;;
46931;SDS011;32670;51.464;11.964;2024-01-25T07:50:06;5.77;;;2.30;;
46931;SDS011;32670;51.464;11.964;2024-01-25T07:52:32;6.13;;;2.20;;
46931;SDS011;32670;51.464;11.964;2024-01-25T07:54:57;7.57;;;2.60;;
46931;SDS011;32670;51.464;11.964;2024-01-25T07:57:22;5.63;;;2.30;;
46931;SDS011;32670;51.464;11.964;2024-01-25T07:59:48;12.47;;;2.60;;
46931;SDS011;32670;51.464;11.964;2024-01-25T08:02:13;13.23;;;2.83;;
46931;SDS011;32670;51.464;11.964;2024-01-25T08:04:39;10.30;;;2.47;;
46931;SDS011;32670;51.464;11.964;2024-01-25T08:07:04;7.37;;;2.40;;
46931;SDS011;32670;51.464;11.964;2024-01-25T08:09:30;8.23;;;2.40;;
46931;SDS011;32670;51.464;11.964;2024-01-25T08:11:55;10.03;;;2.67;;
46931;SDS011;32670;51.464;11.964;2024-01-25T08:14:21;7.00;;;2.90;;
46931;SDS011;32670;51.464;11.964;2024-01-25T08:16:46;7.47;;;2.50;;
46931;SDS011;32670;51.464;11.964;2024-01-25T08:19:11;8.33;;;2.73;;
46931;SDS011;32670;51.464;11.964;2024-01-25T08:21:37;5.27;;;2.50;;
46931;SDS011;32670;51.464;11.964;2024-01-25T08:24:02;5.73;;;2.70;;
46931;SDS011;32670;51.464;11.964;2024-01-25T08:26:29;18.60;;;2.83;;
46931;SDS011;32670;51.464;11.964;2024-01-25T08:28:54;13.60;;;2.60;;
46931;SDS011;32670;51.464;11.964;2024-01-25T08:31:20;8.57;;;2.97;;
46931;SDS011;32670;51.464;11.964;2024-01-25T08:33:45;9.90;;;2.47;;
46931;SDS011;32670;51.464;11.964;2024-01-25T08:36:13;7.07;;;2.57;;
46931;SDS011;32670;51.464;11.964;2024-01-25T08:38:41;9.07;;;2.33;;
46931;SDS011;32670;51.464;11.964;2024-01-25T08:41:07;8.43;;;2.60;;
46931;SDS011;32670;51.464;11.964;2024-01-25T08:43:32;7.30;;;2.50;;
46931;SDS011;32670;51.464;11.964;2024-01-25T08:45:57;5.57;;;2.60;;
46931;SDS011;32670;51.464;11.964;2024-01-25T08:48:23;7.27;;;2.43;;
46931;SDS011;32670;51.464;11.964;2024-01-25T08:50:48;8.43;;;2.80;;
46931;SDS011;32670;51.464;11.964;2024-01-25T08:53:18;6.23;;;2.80;;
46931;SDS011;32670;51.464;11.964;2024-01-25T08:55:44;7.83;;;2.43;;
46931;SDS011;32670;51.464;11.964;2024-01-25T08:58:09;6.07;;;2.27;;
46931;SDS011;32670;51.464;11.964;2024-01-25T09:00:34;4.47;;;2.40;;
46931;SDS011;32670;51.464;11.964;2024-01-25T09:03:00;4.70;;;2.60;;
46931;SDS011;32670;51.464;11.964;2024-01-25T09:05:25;7.30;;;2.73;;
46931;SDS011;32670;51.464;11.964;2024-01-25T09:07:53;4.77;;;1.90;;
46931;SDS011;32670;51.464;11.964;2024-01-25T09:10:18;7.80;;;2.50;;
46931;SDS011;32670;51.464;11.964;2024-01-25T09:12:44;5.30;;;2.00;;
46931;SDS011;32670;51.464;11.964;2024-01-25T09:15:10;4.97;;;2.17;;
46931;SDS011;32670;51.464;11.964;2024-01-25T09:17:36;6.37;;;2.13;;
46931;SDS011;32670;51.464;11.964;2024-01-25T09:20:01;6.10;;;2.27;;
46931;SDS011;32670;51.464;11.964;2024-01-25T09:22:28;4.87;;;2.37;;
46931;SDS011;32670;51.464;11.964;2024-01-25T09:24:53;4.80;;;2.20;;
46931;SDS011;32670;51.464;11.964;2024-01-25T09:27:19;5.40;;;2.10;;
46931;SDS011;32670;51.464;11.964;2024-01-25T09:29:44;5.30;;;2.50;;
46931;SDS011;32670;51.464;11.964;2024-01-25T09:32:10;5.53;;;2.37;;
46931;SDS011;32670;51.464;11.964;2024-01-25T09:34:36;4.63;;;2.10;;
46931;SDS011;32670;51.464;11.964;2024-01-25T09:37:02;4.83;;;2.17;;
46931;SDS011;32670;51.464;11.964;2024-01-25T09:39:28;4.37;;;2.27;;
46931;SDS011;32670;51.464;11.964;2024-01-25T09:41:54;3.80;;;2.00;;
46931;SDS011;32670;51.464;11.964;2024-01-25T09:44:19;4.90;;;1.93;;
46931;SDS011;32670;51.464;11.964;2024-01-25T09:46:45;4.83;;;2.23;;
46931;SDS011;32670;51.464;11.964;2024-01-25T09:49:11;4.57;;;2.17;;
46931;SDS011;32670;51.464;11.964;2024-01-25T09:51:37;4.17;;;2.00;;
46931;SDS011;32670;51.464;11.964;2024-01-25T09:54:06;3.60;;;1.90;;
46931;SDS011;32670;51.464;11.964;2024-01-25T09:56:32;5.67;;;2.33;;
46931;SDS011;32670;51.464;11.964;2024-01-25T09:58:59;5.00;;;2.47;;
46931;SDS011;32670;51.464;11.964;2024-01-25T10:01:25;5.27;;;2.10;;
46931;SDS011;32670;51.464;11.964;2024-01-25T10:03:51;4.40;;;2.13;;
46931;SDS011;32670;51.464;11.964;2024-01-25T10:06:17;3.07;;;1.90;;
46931;SDS011;32670;51.464;11.964;2024-01-25T10:08:43;4.63;;;1.90;;
46931;SDS011;32670;51.464;11.964;2024-01-25T10:11:10;3.50;;;1.90;;
46931;SDS011;32670;51.464;11.964;2024-01-25T10:13:48;3.33;;;2.20;;
46931;SDS011;32670;51.464;11.964;2024-01-25T10:16:18;4.30;;;2.30;;
46931;SDS011;32670;51.464;11.964;2024-01-25T10:18:48;3.53;;;1.80;;
46931;SDS011;32670;51.464;11.964;2024-01-25T10:21:14;3.10;;;1.80;;
46931;SDS011;32670;51.464;11.964;2024-01-25T10:23:40;2.60;;;1.57;;
46931;SDS011;32670;51.464;11.964;2024-01-25T10:26:08;3.53;;;2.00;;
46931;SDS011;32670;51.464;11.964;2024-01-25T10:28:34;3.50;;;1.70;;
46931;SDS011;32670;51.464;11.964;2024-01-25T10:31:01;3.33;;;1.63;;
46931;SDS011;32670;51.464;11.964;2024-01-25T10:33:29;3.00;;;1.90;;
46931;SDS011;32670;51.464;11.964;2024-01-25T10:35:55;5.03;;;2.20;;
46931;SDS011;32670;51.464;11.964;2024-01-25T10:38:26;3.33;;;2.00;;
46931;SDS011;32670;51.464;11.964;2024-01-25T10:40:56;3.10;;;1.87;;
46931;SDS011;32670;51.464;11.964;2024-01-25T10:43:26;3.43;;;1.90;;
46931;SDS011;32670;51.464;11.964;2024-01-25T10:45:52;2.67;;;1.50;;
46931;SDS011;32670;51.464;11.964;2024-01-25T10:48:20;2.97;;;1.67;;
46931;SDS011;32670;51.464;11.964;2024-01-25T10:50:47;3.30;;;1.83;;
46931;SDS011;32670;51.464;11.964;2024-01-25T10:53:13;3.10;;;1.70;;
46931;SDS011;32670;51.464;11.964;2024-01-25T10:55:41;3.23;;;1.40;;
46931;SDS011;32670;51.464;11.964;2024-01-25T10:58:07;3.10;;;1.60;;
46931;SDS011;32670;51.464;11.964;2024-01-25T11:00:35;2.60;;;1.60;;
46931;SDS011;32670;51.464;11.964;2024-01-25T11:03:02;4.57;;;1.73;;
46931;SDS011;32670;51.464;11.964;2024-01-25T11:05:30;3.20;;;1.80;;
46931;SDS011;32670;51.464;11.964;2024-01-25T11:07:56;2.93;;;1.77;;
46931;SDS011;32670;51.464;11.964;2024-01-25T11:10:24;2.87;;;1.57;;
46931;SDS011;32670;51.464;11.964;2024-01-25T11:12:59;3.10;;;1.73;;
46931;SDS011;32670;51.464;11.964;2024-01-25T11:17:57;2.73;;;1.77;;
46931;SDS011;32670;51.464;11.964;2024-01-25T11:20:24;2.33;;;1.53;;
46931;SDS011;32670;51.464;11.964;2024-01-25T11:22:55;2.03;;;1.50;;
46931;SDS011;32670;51.464;11.964;2024-01-25T11:25:31;2.53;;;1.67;;
46931;SDS011;32670;51.464;11.964;2024-01-25T11:27:58;2.57;;;1.60;;
46931;SDS011;32670;51.464;11.964;2024-01-25T11:30:25;2.87;;;1.60;;
46931;SDS011;32670;51.464;11.964;2024-01-25T11:32:50;3.27;;;2.03;;
46931;SDS011;32670;51.464;11.964;2024-01-25T11:35:16;2.70;;;1.70;;
46931;SDS011;32670;51.464;11.964;2024-01-25T11:37:45;2.47;;;1.83;;
46931;SDS011;32670;51.464;11.964;2024-01-25T11:40:11;4.00;;;1.80;;
46931;SDS011;32670;51.464;11.964;2024-01-25T11:42:38;2.60;;;1.57;;
46931;SDS011;32670;51.464;11.964;2024-01-25T11:45:05;2.57;;;1.73;;
46931;SDS011;32670;51.464;11.964;2024-01-25T11:47:33;2.33;;;1.30;;
46931;SDS011;32670;51.464;11.964;2024-01-25T11:49:59;2.57;;;1.40;;
46931;SDS011;32670;51.464;11.964;2024-01-25T11:52:25;1.53;;;1.30;;
46931;SDS011;32670;51.464;11.964;2024-01-25T11:54:51;2.03;;;1.30;;
46931;SDS011;32670;51.464;11.964;2024-01-25T11:57:17;3.17;;;1.70;;
46931;SDS011;32670;51.464;11.964;2024-01-25T11:59:43;2.30;;;1.70;;
46931;SDS011;32670;51.464;11.964;2024-01-25T12:02:11;2.53;;;1.63;;
46931;SDS011;32670;51.464;11.964;2024-01-25T12:04:39;1.70;;;1.40;;
46931;SDS011;32670;51.464;11.964;2024-01-25T12:07:05;3.40;;;1.73;;
46931;SDS011;32670;51.464;11.964;2024-01-25T12:09:31;1.67;;;1.20;;
46931;SDS011;32670;51.464;11.964;2024-01-25T12:11:57;2.17;;;1.40;;
46931;SDS011;32670;51.464;11.964;2024-01-25T12:14:25;2.20;;;1.40;;
46931;SDS011;32670;51.464;11.964;2024-01-25T12:16:54;1.60;;;1.30;;
46931;SDS011;32670;51.464;11.964;2024-01-25T12:19:20;2.37;;;1.50;;
46931;SDS011;32670;51.464;11.964;2024-01-25T12:21:46;2.17;;;1.40;;
46931;SDS011;32670;51.464;11.964;2024-01-25T12:24:12;1.90;;;1.20;;
46931;SDS011;32670;51.464;11.964;2024-01-25T12:26:37;1.60;;;1.30;;
46931;SDS011;32670;51.464;11.964;2024-01-25T12:29:03;2.47;;;1.33;;
46931;SDS011;32670;51.464;11.964;2024-01-25T12:31:30;2.27;;;1.40;;
46931;SDS011;32670;51.464;11.964;2024-01-25T12:33:55;2.30;;;1.47;;
46931;SDS011;32670;51.464;11.964;2024-01-25T12:36:22;2.33;;;1.43;;
46931;SDS011;32670;51.464;11.964;2024-01-25T12:38:47;3.37;;;1.40;;
46931;SDS011;32670;51.464;11.964;2024-01-25T12:41:13;1.67;;;1.27;;
46931;SDS011;32670;51.464;11.964;2024-01-25T12:43:39;2.83;;;1.60;;
46931;SDS011;32670;51.464;11.964;2024-01-25T12:46:05;2.97;;;1.33;;
46931;SDS011;32670;51.464;11.964;2024-01-25T12:48:31;1.40;;;1.30;;
46931;SDS011;32670;51.464;11.964;2024-01-25T12:50:56;1.60;;;1.10;;
46931;SDS011;32670;51.464;11.964;2024-01-25T12:53:22;1.47;;;1.10;;
46931;SDS011;32670;51.464;11.964;2024-01-25T12:55:47;1.37;;;1.07;;
46931;SDS011;32670;51.464;11.964;2024-01-25T12:58:13;1.90;;;1.37;;
46931;SDS011;32670;51.464;11.964;2024-01-25T13:00:38;2.37;;;1.30;;
46931;SDS011;32670;51.464;11.964;2024-01-25T13:03:04;1.90;;;1.50;;
46931;SDS011;32670;51.464;11.964;2024-01-25T13:05:29;2.17;;;1.40;;
46931;SDS011;32670;51.464;11.964;2024-01-25T13:07:58;1.43;;;1.17;;
46931;SDS011;32670;51.464;11.964;2024-01-25T13:10:25;1.40;;;1.20;;
46931;SDS011;32670;51.464;11.964;2024-01-25T13:12:51;1.60;;;1.20;;
46931;SDS011;32670;51.464;11.964;2024-01-25T13:15:16;1.90;;;1.13;;
46931;SDS011;32670;51.464;11.964;2024-01-25T13:17:41;1.50;;;1.30;;
46931;SDS011;32670;51.464;11.964;2024-01-25T13:20:07;1.50;;;1.30;;
46931;SDS011;32670;51.464;11.964;2024-01-25T13:22:33;2.20;;;1.37;;
46931;SDS011;32670;51.464;11.964;2024-01-25T13:24:59;1.90;;;1.20;;
46931;SDS011;32670;51.464;11.964;2024-01-25T13:27:25;2.90;;;1.30;;
46931;SDS011;32670;51.464;11.964;2024-01-25T13:29:52;1.50;;;1.00;;
46931;SDS011;32670;51.464;11.964;2024-01-25T13:32:17;1.40;;;1.10;;
46931;SDS011;32670;51.464;11.964;2024-01-25T13:34:43;2.40;;;1.40;;
46931;SDS011;32670;51.464;11.964;2024-01-25T13:37:08;1.57;;;1.20;;
46931;SDS011;32670;51.464;11.964;2024-01-25T13:39:34;1.33;;;1.20;;
46931;SDS011;32670;51.464;11.964;2024-01-25T13:41:59;1.30;;;1.10;;
46931;SDS011;32670;51.464;11.964;2024-01-25T13:44:25;1.87;;;1.20;;
46931;SDS011;32670;51.464;11.964;2024-01-25T13:46:50;1.67;;;1.10;;
46931;SDS011;32670;51.464;11.964;2024-01-25T13:49:16;2.17;;;1.30;;
46931;SDS011;32670;51.464;11.964;2024-01-25T13:51:41;1.93;;;1.20;;
46931;SDS011;32670;51.464;11.964;2024-01-25T13:54:08;1.50;;;1.27;;
46931;SDS011;32670;51.464;11.964;2024-01-25T13:56:34;2.43;;;1.60;;
46931;SDS011;32670;51.464;11.964;2024-01-25T13:58:59;1.67;;;1.33;;
46931;SDS011;32670;51.464;11.964;2024-01-25T14:01:24;1.70;;;1.40;;
46931;SDS011;32670;51.464;11.964;2024-01-25T14:03:50;1.50;;;1.20;;
46931;SDS011;32670;51.464;11.964;2024-01-25T14:06:16;1.80;;;1.20;;
46931;SDS011;32670;51.464;11.964;2024-01-25T14:08:42;1.43;;;1.30;;
46931;SDS011;32670;51.464;11.964;2024-01-25T14:11:07;1.93;;;1.30;;
46931;SDS011;32670;51.464;11.964;2024-01-25T14:13:34;2.73;;;1.30;;
46931;SDS011;32670;51.464;11.964;2024-01-25T14:15:59;1.87;;;1.30;;
46931;SDS011;32670;51.464;11.964;2024-01-25T14:18:26;1.37;;;1.20;;
46931;SDS011;32670;51.464;11.964;2024-01-25T14:20:53;2.10;;;1.40;;
46931;SDS011;32670;51.464;11.964;2024-01-25T14:23:18;1.27;;;1.00;;
46931;SDS011;32670;51.464;11.964;2024-01-25T14:25:44;1.97;;;1.13;;
46931;SDS011;32670;51.464;11.964;2024-01-25T14:28:10;1.40;;;1.30;;